Terminal Aerodrome Forecast
Issued by NWS Boston, MA

Home | Current Version | Previous Version | Text Only | Print | Product List | Glossary On
Versions: 1 2 3 4 5 6 7 8 9 10 11 12 13 14 15 16 17 18 19 20 21 22 23 24
000
FTUS41 KBOX 292320
TAFBOS
TAF
KBOS 292320Z 3000/3106 35012KT P6SM FEW250
     FM300800 33004KT P6SM SKC
     FM301400 16005KT P6SM FEW250
     FM302000 15009KT P6SM FEW250
     FM310000 19008KT P6SM FEW250=

USA.gov is the U.S. government's official web portal to all federal, state and local government web resources and services.